Terminal Aerodrome Forecast
Issued by NWS Upton, NY

Home | Current Version | Previous Version | Text Only | Print | Product List | Glossary On
Versions: 1 2 3 4 5 6 7 8 9 10 11 12 13 14 15 16 17 18 19 20 21 22 23 24 25 26 27 28 29 30 31 32 33 34 35
522
FTUS41 KOKX 170524
TAFISP
TAF
KISP 170524Z 1706/1806 VRB04KT P6SM FEW060
      TEMPO 1708/1712 5SM BR
     FM171400 07007KT P6SM FEW250
     FM171700 13008KT P6SM FEW050 SCT250
     FM171900 16008KT P6SM FEW060 SCT250
     FM180200 19004KT P6SM SCT040 BKN200=

USA.gov is the U.S. government's official web portal to all federal, state and local government web resources and services.